createdAt,value
2019-06-26T00:03:47.194Z,10.18
2019-06-26T00:08:51.470Z,10.38
2019-06-26T00:13:55.761Z,10.03
2019-06-26T00:19:00.053Z,10.18
2019-06-26T00:24:04.363Z,10.43
2019-06-26T00:29:08.656Z,9.75
2019-06-26T00:34:12.983Z,9.80
2019-06-26T00:39:17.238Z,10.60
2019-06-26T00:44:21.627Z,10.23
2019-06-26T00:49:25.844Z,10.65
2019-06-26T00:54:30.128Z,11.18
2019-06-26T00:59:34.432Z,9.73
2019-06-26T01:04:53.487Z,10.65
2019-06-26T01:09:57.782Z,11.27
2019-06-26T01:15:02.121Z,10.80
2019-06-26T01:20:08.610Z,10.48
2019-06-26T01:25:14.075Z,10.80
2019-06-26T01:30:18.793Z,10.78
2019-06-26T01:35:23.094Z,12.63
2019-06-26T01:40:27.403Z,11.38
2019-06-26T01:45:31.801Z,11.18
2019-06-26T01:50:36.044Z,11.40
2019-06-26T01:55:40.367Z,11.68
2019-06-26T02:00:44.697Z,12.33
2019-06-26T02:05:49.077Z,10.78
2019-06-26T02:10:53.412Z,12.25
2019-06-26T02:15:57.729Z,12.03
2019-06-26T02:21:02.032Z,12.13
2019-06-26T02:26:06.405Z,11.83
2019-06-26T02:31:10.751Z,12.43
2019-06-26T02:36:15.036Z,11.65
2019-06-26T02:41:19.386Z,12.47
2019-06-26T02:46:23.709Z,12.93
2019-06-26T02:51:28.010Z,12.78
2019-06-26T02:56:32.346Z,12.50
2019-06-26T03:01:36.666Z,12.43
2019-06-26T03:06:40.996Z,12.70
2019-06-26T03:11:45.326Z,12.55
2019-06-26T03:16:49.622Z,13.68
2019-06-26T03:21:53.920Z,12.45
2019-06-26T03:26:58.229Z,12.70
2019-06-26T03:32:02.551Z,12.73
2019-06-26T03:37:06.860Z,12.10
2019-06-26T03:42:11.875Z,12.26
2019-06-26T03:47:16.195Z,12.40
2019-06-26T03:52:20.490Z,13.50
2019-06-26T03:57:24.775Z,13.30
2019-06-26T04:02:29.065Z,13.07
2019-06-26T04:07:33.372Z,13.75
2019-06-26T04:12:37.651Z,14.03
2019-06-26T04:17:41.968Z,13.22
2019-06-26T04:22:47.635Z,12.65
2019-06-26T04:27:52.216Z,13.62
2019-06-26T04:32:56.518Z,15.00
2019-06-26T04:38:00.830Z,13.30
2019-06-26T04:43:05.225Z,12.45
2019-06-26T04:48:09.572Z,13.05
2019-06-26T04:53:13.853Z,13.55
2019-06-26T04:58:18.133Z,12.78
2019-06-26T05:03:22.417Z,12.75
2019-06-26T05:08:26.711Z,12.80
2019-06-26T05:13:31.025Z,12.70
2019-06-26T05:18:35.290Z,13.60
2019-06-26T05:23:39.583Z,13.75
2019-06-26T05:28:43.901Z,12.90
2019-06-26T05:33:48.268Z,13.50
2019-06-26T05:38:52.515Z,16.20
2019-06-26T05:43:56.832Z,13.53
2019-06-26T05:49:01.205Z,12.55
2019-06-26T05:54:05.543Z,12.68
2019-06-26T05:59:09.807Z,13.30
2019-06-26T06:04:14.112Z,13.05
2019-06-26T06:09:18.436Z,12.35
2019-06-26T06:14:22.757Z,12.37
2019-06-26T06:19:28.193Z,12.30
2019-06-26T06:24:32.573Z,11.28
2019-06-26T06:29:36.885Z,11.20
2019-06-26T06:34:41.295Z,14.00
2019-06-26T06:39:45.588Z,10.60
2019-06-26T06:44:49.872Z,13.32
2019-06-26T06:49:54.162Z,11.08
2019-06-26T06:54:58.600Z,12.03
2019-06-26T07:00:02.952Z,14.87
2019-06-26T07:05:08.993Z,11.12
2019-06-26T07:10:13.291Z,10.55
2019-06-26T07:15:17.954Z,10.98
2019-06-26T07:20:22.362Z,10.53
2019-06-26T07:25:26.638Z,12.03
2019-06-26T07:30:30.955Z,9.98
2019-06-26T07:35:35.291Z,10.63
2019-06-26T07:40:39.596Z,9.85
2019-06-26T07:45:43.903Z,10.55
2019-06-26T07:50:49.555Z,7.58
2019-06-26T07:55:53.823Z,7.30
2019-06-26T08:00:58.127Z,6.97
2019-06-26T08:06:02.409Z,6.08
2019-06-26T08:11:06.778Z,5.62
2019-06-26T08:16:11.159Z,8.23
2019-06-26T08:21:15.432Z,6.28
2019-06-26T08:26:20.739Z,8.93
2019-06-26T08:31:24.997Z,6.33
2019-06-26T08:36:29.346Z,8.78
2019-06-26T08:41:33.627Z,9.85
2019-06-26T08:46:37.897Z,6.00
2019-06-26T08:51:42.167Z,5.92
2019-06-26T08:56:46.453Z,7.42
2019-06-26T09:01:50.825Z,6.83
2019-06-26T09:06:55.143Z,7.45
2019-06-26T09:11:59.447Z,9.50
2019-06-26T09:17:03.787Z,6.15
2019-06-26T09:22:09.389Z,6.17
2019-06-26T09:27:15.047Z,6.10
2019-06-26T09:32:19.584Z,7.28
2019-06-26T09:37:23.905Z,7.33
2019-06-26T09:42:28.207Z,6.17
2019-06-26T09:47:32.499Z,8.73
2019-06-26T09:52:36.781Z,5.40
2019-06-26T09:57:41.078Z,7.35
2019-06-26T10:02:45.350Z,4.80
2019-06-26T10:07:49.624Z,6.15
2019-06-26T10:12:53.931Z,7.30
2019-06-26T10:17:58.256Z,6.62
2019-06-26T10:23:02.543Z,6.72
2019-06-26T10:28:06.822Z,6.97
2019-06-26T10:33:11.131Z,6.62
2019-06-26T10:38:15.401Z,6.47
2019-06-26T10:43:19.681Z,7.08
2019-06-26T10:48:23.978Z,12.33
2019-06-26T10:53:28.369Z,6.10
2019-06-26T10:58:32.636Z,5.10
2019-06-26T11:03:36.931Z,4.90
2019-06-26T11:08:41.242Z,9.63
2019-06-26T11:13:45.546Z,8.78
2019-06-26T11:18:49.850Z,6.20
2019-06-26T11:23:54.123Z,6.65
2019-06-26T11:28:58.398Z,7.62
2019-06-26T11:34:03.520Z,7.05
2019-06-26T11:39:08.220Z,5.72
2019-06-26T11:44:12.429Z,5.42
2019-06-26T11:49:16.744Z,6.65
2019-06-26T11:54:21.031Z,9.48
2019-06-26T11:59:25.440Z,8.23
2019-06-26T12:04:29.770Z,9.48
2019-06-26T12:09:34.043Z,6.83
2019-06-26T12:14:38.371Z,8.53
2019-06-26T12:19:42.653Z,11.40
2019-06-26T12:24:46.920Z,8.00
2019-06-26T12:29:51.225Z,5.45
2019-06-26T12:34:55.646Z,6.20
2019-06-26T12:40:00.574Z,6.60
2019-06-26T12:45:09.299Z,6.53
2019-06-26T12:50:15.284Z,10.03
2019-06-26T12:55:19.665Z,9.23
2019-06-26T13:00:23.964Z,11.83
2019-06-26T13:05:28.228Z,7.92
2019-06-26T13:10:48.514Z,8.05
2019-06-26T13:15:38.559Z,7.80
2019-06-26T13:20:53.018Z,8.95
2019-06-26T13:25:49.004Z,10.63
2019-06-26T13:30:55.960Z,9.88
2019-06-26T13:36:00.241Z,8.15
2019-06-26T13:41:04.535Z,7.33
2019-06-26T13:46:08.880Z,11.38
2019-06-26T13:51:13.307Z,9.70
2019-06-26T13:56:17.574Z,8.90
2019-06-26T14:01:23.157Z,9.80
2019-06-26T14:06:27.677Z,6.87
2019-06-26T14:11:31.977Z,8.58
2019-06-26T14:16:36.290Z,8.85
2019-06-26T14:21:40.549Z,8.28
2019-06-26T14:26:44.912Z,8.38
2019-06-26T14:31:49.296Z,11.83
2019-06-26T14:36:53.655Z,11.70
2019-06-26T14:41:57.928Z,10.70
2019-06-26T14:47:02.240Z,8.08
2019-06-26T14:52:06.594Z,8.68
2019-06-26T14:57:10.941Z,9.85
2019-06-26T15:02:15.242Z,9.83
2019-06-26T15:07:19.515Z,9.65
2019-06-26T15:12:23.837Z,8.98
2019-06-26T15:17:28.122Z,11.27
2019-06-26T15:22:32.439Z,10.38
2019-06-26T15:27:36.831Z,9.13
2019-06-26T15:32:41.211Z,6.20
2019-06-26T15:37:45.481Z,7.37
2019-06-26T15:42:49.836Z,7.37
2019-06-26T15:47:54.153Z,8.98
2019-06-26T15:52:59.519Z,7.10
2019-06-26T15:58:03.817Z,11.38
2019-06-26T16:03:08.114Z,11.75
2019-06-26T16:08:12.384Z,10.03
2019-06-26T16:13:16.774Z,9.85
2019-06-26T16:18:31.743Z,8.93
2019-06-26T16:23:36.041Z,11.18
2019-06-26T16:28:41.335Z,8.20
2019-06-26T16:33:45.710Z,9.18
2019-06-26T16:38:51.631Z,9.23
2019-06-26T16:43:56.272Z,10.63
2019-06-26T16:49:00.584Z,7.05
2019-06-26T16:54:05.840Z,11.95
2019-06-26T16:59:10.138Z,9.68
2019-06-26T17:04:14.404Z,8.13
2019-06-26T17:09:18.715Z,11.38
2019-06-26T17:14:23.025Z,7.50
2019-06-26T17:19:27.345Z,9.25
2019-06-26T17:24:31.807Z,10.20
2019-06-26T17:29:36.752Z,10.03
2019-06-26T17:34:41.142Z,11.18
2019-06-26T17:39:46.364Z,11.15
2019-06-26T17:44:50.697Z,8.60
2019-06-26T17:49:55.980Z,10.58
2019-06-26T17:55:00.251Z,12.50
2019-06-26T18:00:06.906Z,10.00
2019-06-26T18:05:11.807Z,11.88
2019-06-26T18:10:16.036Z,9.23
2019-06-26T18:15:20.328Z,8.65
2019-06-26T18:20:24.657Z,10.23
2019-06-26T18:25:29.040Z,10.32
2019-06-26T18:30:33.648Z,9.85
2019-06-26T18:35:38.052Z,8.53
2019-06-26T18:40:42.476Z,7.90
2019-06-26T18:45:46.741Z,10.30
2019-06-26T18:50:51.025Z,9.08
2019-06-26T18:55:55.682Z,10.35
2019-06-26T19:00:59.942Z,8.08
2019-06-26T19:06:04.302Z,11.30
2019-06-26T19:11:08.619Z,9.75
2019-06-26T19:16:12.899Z,11.05
2019-06-26T19:21:17.226Z,12.90
2019-06-26T19:26:23.959Z,13.00
2019-06-26T19:31:28.362Z,11.70
2019-06-26T19:36:45.874Z,10.98
2019-06-26T19:41:39.002Z,13.80
2019-06-26T19:46:43.490Z,10.72
2019-06-26T19:51:47.786Z,7.05
2019-06-26T19:56:52.104Z,11.05
2019-06-26T20:01:56.377Z,9.85
2019-06-26T20:07:00.705Z,14.38
2019-06-26T20:12:05.007Z,14.78
2019-06-26T20:17:09.285Z,9.03
2019-06-26T20:22:13.572Z,8.55
2019-06-26T20:27:17.869Z,12.65
2019-06-26T20:32:22.163Z,11.10
2019-06-26T20:37:26.821Z,10.33
2019-06-26T20:42:31.077Z,10.40
2019-06-26T20:47:35.362Z,8.85
2019-06-26T20:52:39.636Z,9.95
2019-06-26T20:57:43.919Z,12.40
2019-06-26T21:02:48.184Z,8.58
2019-06-26T21:07:55.169Z,8.68
2019-06-26T21:12:59.404Z,9.75
2019-06-26T21:18:03.761Z,7.40
2019-06-26T21:23:18.026Z,11.00
2019-06-26T21:28:14.180Z,9.08
2019-06-26T21:33:18.454Z,9.03
2019-06-26T21:38:22.761Z,10.70
2019-06-26T21:43:27.037Z,9.70
2019-06-26T21:48:31.372Z,8.78
2019-06-26T21:53:35.677Z,11.43
2019-06-26T21:58:57.706Z,11.20
2019-06-26T22:04:19.837Z,9.30
2019-06-26T22:09:25.757Z,8.03
2019-06-26T22:14:30.175Z,8.28
2019-06-26T22:19:34.509Z,7.03
2019-06-26T22:24:38.784Z,9.00
2019-06-26T22:29:44.056Z,10.00
2019-06-26T22:34:48.352Z,8.58
2019-06-26T22:39:52.646Z,6.92
2019-06-26T22:44:56.920Z,9.88
2019-06-26T22:50:01.219Z,7.90
2019-06-26T22:55:08.632Z,9.30
2019-06-26T23:00:15.359Z,7.90
2019-06-26T23:05:19.610Z,6.58
2019-06-26T23:10:23.897Z,6.40
2019-06-26T23:15:28.200Z,5.62
2019-06-26T23:20:32.508Z,6.05
2019-06-26T23:25:36.835Z,7.45
2019-06-26T23:30:41.128Z,5.50
2019-06-26T23:35:45.412Z,5.78
2019-06-26T23:40:49.680Z,7.50
2019-06-26T23:45:53.954Z,5.62
2019-06-26T23:50:58.292Z,7.47
2019-06-26T23:56:02.590Z,6.25
